sensor_id;sensor_type;location;lat;lon;timestamp;pressure;altitude;pressure_sealevel;temperature;humidity
70304;BME280;57712;48.752;11.348;2023-04-24T00:00:44;96633.88;;;11.49;100.00
70304;BME280;57712;48.752;11.348;2023-04-24T00:03:11;96622.38;;;11.42;100.00
70304;BME280;57712;48.752;11.348;2023-04-24T00:05:39;96623.84;;;11.55;100.00
70304;BME280;57712;48.752;11.348;2023-04-24T00:08:07;96632.03;;;11.46;100.00
70304;BME280;57712;48.752;11.348;2023-04-24T00:10:34;96624.69;;;11.43;100.00
70304;BME280;57712;48.752;11.348;2023-04-24T00:13:01;96618.56;;;11.39;100.00
70304;BME280;57712;48.752;11.348;2023-04-24T00:15:27;96614.94;;;11.42;100.00
70304;BME280;57712;48.752;11.348;2023-04-24T00:17:54;96612.84;;;11.46;100.00
70304;BME280;57712;48.752;11.348;2023-04-24T00:20:20;96620.41;;;11.42;100.00
70304;BME280;57712;48.752;11.348;2023-04-24T00:22:47;96612.84;;;11.46;100.00
70304;BME280;57712;48.752;11.348;2023-04-24T00:25:14;96607.28;;;11.37;100.00
70304;BME280;57712;48.752;11.348;2023-04-24T00:27:40;96612.00;;;11.37;100.00
70304;BME280;57712;48.752;11.348;2023-04-24T00:30:07;96617.91;;;11.35;100.00
70304;BME280;57712;48.752;11.348;2023-04-24T00:32:34;96617.50;;;11.37;100.00
70304;BME280;57712;48.752;11.348;2023-04-24T00:35:01;96627.94;;;11.29;100.00
70304;BME280;57712;48.752;11.348;2023-04-24T00:37:28;96624.75;;;11.31;100.00
70304;BME280;57712;48.752;11.348;2023-04-24T00:39:55;96622.69;;;11.44;100.00
70304;BME280;57712;48.752;11.348;2023-04-24T00:42:22;96624.50;;;11.38;100.00
70304;BME280;57712;48.752;11.348;2023-04-24T00:44:49;96626.28;;;11.32;100.00
70304;BME280;57712;48.752;11.348;2023-04-24T00:47:16;96623.34;;;11.26;100.00
70304;BME280;57712;48.752;11.348;2023-04-24T00:49:42;96622.69;;;11.22;100.00
70304;BME280;57712;48.752;11.348;2023-04-24T00:52:10;96622.69;;;11.22;100.00
70304;BME280;57712;48.752;11.348;2023-04-24T00:54:37;96625.75;;;11.24;100.00
70304;BME280;57712;48.752;11.348;2023-04-24T00:57:03;96619.75;;;11.16;100.00
70304;BME280;57712;48.752;11.348;2023-04-24T00:59:31;96613.84;;;11.18;100.00
70304;BME280;57712;48.752;11.348;2023-04-24T01:01:58;96621.47;;;11.23;100.00
70304;BME280;57712;48.752;11.348;2023-04-24T01:04:25;96618.41;;;11.21;100.00
70304;BME280;57712;48.752;11.348;2023-04-24T01:06:53;96622.06;;;11.18;100.00
70304;BME280;57712;48.752;11.348;2023-04-24T01:09:25;96621.66;;;11.07;100.00
70304;BME280;57712;48.752;11.348;2023-04-24T01:11:52;96616.63;;;11.05;100.00
70304;BME280;57712;48.752;11.348;2023-04-24T01:14:19;96621.66;;;11.07;100.00
70304;BME280;57712;48.752;11.348;2023-04-24T01:16:46;96613.88;;;11.05;100.00
70304;BME280;57712;48.752;11.348;2023-04-24T01:19:14;96613.66;;;10.99;100.00
70304;BME280;57712;48.752;11.348;2023-04-24T01:21:42;96613.13;;;11.05;100.00
70304;BME280;57712;48.752;11.348;2023-04-24T01:24:09;96612.44;;;11.01;100.00
70304;BME280;57712;48.752;11.348;2023-04-24T01:26:36;96605.69;;;10.92;100.00
70304;BME280;57712;48.752;11.348;2023-04-24T01:29:03;96600.19;;;10.92;100.00
70304;BME280;57712;48.752;11.348;2023-04-24T01:31:29;96605.56;;;10.96;100.00
70304;BME280;57712;48.752;11.348;2023-04-24T01:33:57;96606.97;;;11.01;100.00
70304;BME280;57712;48.752;11.348;2023-04-24T01:36:23;96603.78;;;11.02;100.00
70304;BME280;57712;48.752;11.348;2023-04-24T01:38:52;96596.25;;;10.93;100.00
70304;BME280;57712;48.752;11.348;2023-04-24T01:41:19;96598.44;;;10.98;100.00
70304;BME280;57712;48.752;11.348;2023-04-24T01:43:46;96598.16;;;10.84;100.00
70304;BME280;57712;48.752;11.348;2023-04-24T01:46:14;96598.34;;;10.89;100.00
70304;BME280;57712;48.752;11.348;2023-04-24T01:48:41;96600.47;;;10.85;100.00
70304;BME280;57712;48.752;11.348;2023-04-24T01:51:08;96585.78;;;10.79;100.00
70304;BME280;57712;48.752;11.348;2023-04-24T01:53:34;96588.59;;;10.88;100.00
70304;BME280;57712;48.752;11.348;2023-04-24T01:56:01;96583.13;;;10.88;100.00
70304;BME280;57712;48.752;11.348;2023-04-24T01:58:28;96581.59;;;10.87;100.00
70304;BME280;57712;48.752;11.348;2023-04-24T02:00:56;96579.50;;;10.91;100.00
70304;BME280;57712;48.752;11.348;2023-04-24T02:03:23;96573.91;;;10.82;100.00
70304;BME280;57712;48.752;11.348;2023-04-24T02:05:50;96575.66;;;10.89;100.00
70304;BME280;57712;48.752;11.348;2023-04-24T02:08:16;96578.53;;;10.85;100.00
70304;BME280;57712;48.752;11.348;2023-04-24T02:10:43;96573.66;;;10.67;100.00
70304;BME280;57712;48.752;11.348;2023-04-24T02:13:10;96575.13;;;10.81;100.00
70304;BME280;57712;48.752;11.348;2023-04-24T02:15:37;96565.63;;;10.73;100.00
70304;BME280;57712;48.752;11.348;2023-04-24T02:18:03;96565.63;;;10.73;100.00
70304;BME280;57712;48.752;11.348;2023-04-24T02:20:30;96569.25;;;10.70;100.00
70304;BME280;57712;48.752;11.348;2023-04-24T02:22:56;96564.63;;;10.80;100.00
70304;BME280;57712;48.752;11.348;2023-04-24T02:25:23;96557.31;;;10.77;100.00
70304;BME280;57712;48.752;11.348;2023-04-24T02:27:50;96569.81;;;10.65;100.00
70304;BME280;57712;48.752;11.348;2023-04-24T02:30:17;96561.03;;;10.70;100.00
70304;BME280;57712;48.752;11.348;2023-04-24T02:32:43;96563.22;;;10.62;100.00
70304;BME280;57712;48.752;11.348;2023-04-24T02:35:10;96562.91;;;10.60;100.00
70304;BME280;57712;48.752;11.348;2023-04-24T02:37:37;96564.88;;;10.60;100.00
70304;BME280;57712;48.752;11.348;2023-04-24T02:40:04;96557.25;;;10.55;100.00
70304;BME280;57712;48.752;11.348;2023-04-24T02:42:32;96566.75;;;10.63;100.00
70304;BME280;57712;48.752;11.348;2023-04-24T02:44:58;96565.00;;;10.56;100.00
70304;BME280;57712;48.752;11.348;2023-04-24T02:47:25;96570.28;;;10.51;100.00
70304;BME280;57712;48.752;11.348;2023-04-24T02:49:51;96563.25;;;10.50;100.00
70304;BME280;57712;48.752;11.348;2023-04-24T02:52:18;96571.13;;;10.60;100.00
70304;BME280;57712;48.752;11.348;2023-04-24T02:54:45;96561.97;;;10.54;100.00
70304;BME280;57712;48.752;11.348;2023-04-24T02:57:11;96581.22;;;10.51;100.00
70304;BME280;57712;48.752;11.348;2023-04-24T02:59:38;96576.88;;;10.53;100.00
70304;BME280;57712;48.752;11.348;2023-04-24T03:02:04;96574.22;;;10.50;100.00
70304;BME280;57712;48.752;11.348;2023-04-24T03:04:32;96579.94;;;10.43;100.00
70304;BME280;57712;48.752;11.348;2023-04-24T03:06:58;96582.25;;;10.44;100.00
70304;BME280;57712;48.752;11.348;2023-04-24T03:09:25;96577.53;;;10.45;100.00
70304;BME280;57712;48.752;11.348;2023-04-24T03:11:52;96577.63;;;10.41;100.00
70304;BME280;57712;48.752;11.348;2023-04-24T03:14:19;96575.34;;;10.39;100.00
70304;BME280;57712;48.752;11.348;2023-04-24T03:16:45;96583.88;;;10.41;100.00
70304;BME280;57712;48.752;11.348;2023-04-24T03:19:12;96580.59;;;10.47;100.00
70304;BME280;57712;48.752;11.348;2023-04-24T03:21:39;96589.88;;;10.49;100.00
70304;BME280;57712;48.752;11.348;2023-04-24T03:24:08;96580.81;;;10.39;100.00
70304;BME280;57712;48.752;11.348;2023-04-24T03:26:35;96582.25;;;10.44;100.00
70304;BME280;57712;48.752;11.348;2023-04-24T03:29:01;96574.13;;;10.40;100.00
70304;BME280;57712;48.752;11.348;2023-04-24T03:31:28;96583.00;;;10.45;100.00
70304;BME280;57712;48.752;11.348;2023-04-24T03:33:55;96578.84;;;10.53;100.00
70304;BME280;57712;48.752;11.348;2023-04-24T03:36:21;96583.53;;;10.39;100.00
70304;BME280;57712;48.752;11.348;2023-04-24T03:38:48;96573.16;;;10.34;100.00
70304;BME280;57712;48.752;11.348;2023-04-24T03:41:14;96583.78;;;10.45;100.00
70304;BME280;57712;48.752;11.348;2023-04-24T03:43:41;96576.00;;;10.44;100.00
70304;BME280;57712;48.752;11.348;2023-04-24T03:46:07;96569.09;;;10.39;100.00
70304;BME280;57712;48.752;11.348;2023-04-24T03:48:35;96576.34;;;10.33;100.00
70304;BME280;57712;48.752;11.348;2023-04-24T03:51:02;96571.63;;;10.33;100.00
70304;BME280;57712;48.752;11.348;2023-04-24T03:53:29;96572.72;;;10.23;100.00
70304;BME280;57712;48.752;11.348;2023-04-24T03:55:55;96567.69;;;10.34;100.00
70304;BME280;57712;48.752;11.348;2023-04-24T03:58:22;96566.69;;;10.28;100.00
70304;BME280;57712;48.752;11.348;2023-04-24T04:00:49;96570.09;;;10.32;100.00
70304;BME280;57712;48.752;11.348;2023-04-24T04:03:16;96559.25;;;10.29;100.00
70304;BME280;57712;48.752;11.348;2023-04-24T04:05:42;96567.59;;;10.25;100.00
70304;BME280;57712;48.752;11.348;2023-04-24T04:08:09;96566.16;;;10.33;100.00
70304;BME280;57712;48.752;11.348;2023-04-24T04:10:36;96568.66;;;10.15;100.00
70304;BME280;57712;48.752;11.348;2023-04-24T04:13:02;96576.88;;;10.28;100.00
70304;BME280;57712;48.752;11.348;2023-04-24T04:15:29;96572.50;;;10.30;100.00
70304;BME280;57712;48.752;11.348;2023-04-24T04:17:55;96571.84;;;10.26;100.00
70304;BME280;57712;48.752;11.348;2023-04-24T04:20:22;96576.44;;;10.29;100.00
70304;BME280;57712;48.752;11.348;2023-04-24T04:22:48;96570.19;;;10.29;100.00
70304;BME280;57712;48.752;11.348;2023-04-24T04:25:15;96573.91;;;10.35;100.00
70304;BME280;57712;48.752;11.348;2023-04-24T04:27:42;96573.56;;;10.20;100.00
70304;BME280;57712;48.752;11.348;2023-04-24T04:30:08;96571.38;;;10.15;100.00
70304;BME280;57712;48.752;11.348;2023-04-24T04:32:36;96576.88;;;10.15;100.00
70304;BME280;57712;48.752;11.348;2023-04-24T04:35:03;96583.69;;;10.23;100.00
70304;BME280;57712;48.752;11.348;2023-04-24T04:37:32;96581.25;;;10.25;100.00
70304;BME280;57712;48.752;11.348;2023-04-24T04:40:00;96581.44;;;10.18;100.00
70304;BME280;57712;48.752;11.348;2023-04-24T04:42:26;96582.16;;;10.22;100.00
70304;BME280;57712;48.752;11.348;2023-04-24T04:44:54;96580.38;;;10.16;100.00
70304;BME280;57712;48.752;11.348;2023-04-24T04:47:22;96577.63;;;10.16;100.00
70304;BME280;57712;48.752;11.348;2023-04-24T04:49:50;96575.53;;;10.07;100.00
70304;BME280;57712;48.752;11.348;2023-04-24T04:52:18;96582.88;;;10.10;100.00
70304;BME280;57712;48.752;11.348;2023-04-24T04:54:45;96584.88;;;10.22;100.00
70304;BME280;57712;48.752;11.348;2023-04-24T04:57:12;96586.16;;;10.05;100.00
70304;BME280;57712;48.752;11.348;2023-04-24T04:59:39;96587.81;;;10.15;100.00
70304;BME280;57712;48.752;11.348;2023-04-24T05:02:08;96595.91;;;10.19;100.00
70304;BME280;57712;48.752;11.348;2023-04-24T05:04:34;96597.44;;;10.07;100.00
70304;BME280;57712;48.752;11.348;2023-04-24T05:07:01;96591.63;;;10.18;100.00
70304;BME280;57712;48.752;11.348;2023-04-24T05:09:28;96596.16;;;10.24;100.00
70304;BME280;57712;48.752;11.348;2023-04-24T05:11:55;96591.63;;;10.18;100.00
70304;BME280;57712;48.752;11.348;2023-04-24T05:14:22;96586.91;;;10.18;100.00
70304;BME280;57712;48.752;11.348;2023-04-24T05:16:49;96590.09;;;10.17;100.00
70304;BME280;57712;48.752;11.348;2023-04-24T05:19:15;96596.66;;;10.19;100.00
70304;BME280;57712;48.752;11.348;2023-04-24T05:21:42;96593.94;;;10.19;100.00
70304;BME280;57712;48.752;11.348;2023-04-24T05:24:08;96600.09;;;10.23;100.00
70304;BME280;57712;48.752;11.348;2023-04-24T05:26:35;96602.47;;;10.21;100.00
70304;BME280;57712;48.752;11.348;2023-04-24T05:29:02;96600.09;;;10.23;100.00
70304;BME280;57712;48.752;11.348;2023-04-24T05:31:29;96595.56;;;10.17;100.00
70304;BME280;57712;48.752;11.348;2023-04-24T05:33:55;96600.09;;;10.23;100.00
70304;BME280;57712;48.752;11.348;2023-04-24T05:36:22;96601.03;;;10.17;100.00
70304;BME280;57712;48.752;11.348;2023-04-24T05:38:48;96599.22;;;10.26;100.00
70304;BME280;57712;48.752;11.348;2023-04-24T05:41:15;96604.25;;;10.40;100.00
70304;BME280;57712;48.752;11.348;2023-04-24T05:43:42;96603.47;;;10.53;100.00
70304;BME280;57712;48.752;11.348;2023-04-24T05:46:08;96607.75;;;10.54;100.00
70304;BME280;57712;48.752;11.348;2023-04-24T05:48:35;96606.63;;;10.64;100.00
70304;BME280;57712;48.752;11.348;2023-04-24T05:51:01;96599.06;;;10.68;100.00
70304;BME280;57712;48.752;11.348;2023-04-24T05:53:28;96604.22;;;10.66;100.00
70304;BME280;57712;48.752;11.348;2023-04-24T05:55:54;96604.84;;;10.70;100.00
70304;BME280;57712;48.752;11.348;2023-04-24T05:58:21;96606.38;;;10.71;100.00
70304;BME280;57712;48.752;11.348;2023-04-24T06:00:48;96604.94;;;10.79;100.00
70304;BME280;57712;48.752;11.348;2023-04-24T06:03:16;96607.16;;;10.84;100.00
70304;BME280;57712;48.752;11.348;2023-04-24T06:05:42;96611.69;;;11.00;100.00
70304;BME280;57712;48.752;11.348;2023-04-24T06:08:09;96613.81;;;10.83;100.00
70304;BME280;57712;48.752;11.348;2023-04-24T06:10:36;96614.91;;;10.86;100.00
70304;BME280;57712;48.752;11.348;2023-04-24T06:13:02;96618.66;;;10.79;100.00
70304;BME280;57712;48.752;11.348;2023-04-24T06:15:30;96626.88;;;10.79;100.00
70304;BME280;57712;48.752;11.348;2023-04-24T06:17:57;96628.72;;;10.82;100.00
70304;BME280;57712;48.752;11.348;2023-04-24T06:20:24;96625.53;;;10.96;100.00
70304;BME280;57712;48.752;11.348;2023-04-24T06:22:51;96618.81;;;10.97;100.00
70304;BME280;57712;48.752;11.348;2023-04-24T06:25:17;96625.59;;;11.06;100.00
70304;BME280;57712;48.752;11.348;2023-04-24T06:27:45;96618.47;;;11.08;100.00
70304;BME280;57712;48.752;11.348;2023-04-24T06:30:12;96623.66;;;10.93;100.00
70304;BME280;57712;48.752;11.348;2023-04-24T06:32:39;96634.97;;;10.83;100.00
70304;BME280;57712;48.752;11.348;2023-04-24T06:35:06;96613.13;;;11.05;100.00
70304;BME280;57712;48.752;11.348;2023-04-24T06:37:34;96605.91;;;10.98;100.00
70304;BME280;57712;48.752;11.348;2023-04-24T06:40:01;96606.25;;;11.22;100.00
70304;BME280;57712;48.752;11.348;2023-04-24T06:42:27;96601.41;;;11.26;100.00
70304;BME280;57712;48.752;11.348;2023-04-24T06:44:54;96613.25;;;11.23;100.00
70304;BME280;57712;48.752;11.348;2023-04-24T06:47:20;96606.91;;;11.26;100.00
70304;BME280;57712;48.752;11.348;2023-04-24T06:49:47;96608.53;;;11.23;100.00
70304;BME280;57712;48.752;11.348;2023-04-24T06:52:13;96595.59;;;11.24;100.00
70304;BME280;57712;48.752;11.348;2023-04-24T06:54:41;96595.97;;;11.35;100.00
70304;BME280;57712;48.752;11.348;2023-04-24T06:57:08;96611.56;;;11.38;100.00
70304;BME280;57712;48.752;11.348;2023-04-24T06:59:35;96610.97;;;11.43;100.00
70304;BME280;57712;48.752;11.348;2023-04-24T07:02:02;96615.81;;;11.39;100.00
70304;BME280;57712;48.752;11.348;2023-04-24T07:04:29;96622.59;;;11.47;100.00
70304;BME280;57712;48.752;11.348;2023-04-24T07:06:56;96624.75;;;11.52;100.00
70304;BME280;57712;48.752;11.348;2023-04-24T07:09:25;96629.94;;;11.50;100.00
70304;BME280;57712;48.752;11.348;2023-04-24T07:11:52;96621.19;;;11.65;100.00
70304;BME280;57712;48.752;11.348;2023-04-24T07:14:20;96624.22;;;11.67;100.00
70304;BME280;57712;48.752;11.348;2023-04-24T07:16:46;96627.25;;;11.60;100.00
70304;BME280;57712;48.752;11.348;2023-04-24T07:19:13;96632.53;;;11.54;100.00
70304;BME280;57712;48.752;11.348;2023-04-24T07:21:40;96635.09;;;11.48;100.00
70304;BME280;57712;48.752;11.348;2023-04-24T07:24:07;96640.81;;;11.41;100.00
70304;BME280;57712;48.752;11.348;2023-04-24T07:26:37;96644.78;;;11.40;100.00
70304;BME280;57712;48.752;11.348;2023-04-24T07:29:06;96640.81;;;11.41;100.00
70304;BME280;57712;48.752;11.348;2023-04-24T07:31:32;96644.84;;;11.49;100.00
70304;BME280;57712;48.752;11.348;2023-04-24T07:33:59;96651.72;;;11.54;100.00
70304;BME280;57712;48.752;11.348;2023-04-24T07:36:26;96677.75;;;11.49;100.00
70304;BME280;57712;48.752;11.348;2023-04-24T07:38:54;96688.44;;;10.87;100.00
70304;BME280;57712;48.752;11.348;2023-04-24T07:41:20;96687.19;;;10.12;100.00
70304;BME280;57712;48.752;11.348;2023-04-24T07:43:50;96685.66;;;10.11;100.00
70304;BME280;57712;48.752;11.348;2023-04-24T07:46:16;96691.19;;;9.53;100.00
70304;BME280;57712;48.752;11.348;2023-04-24T07:48:43;96685.19;;;9.58;100.00
70304;BME280;57712;48.752;11.348;2023-04-24T07:51:10;96696.22;;;9.54;100.00
70304;BME280;57712;48.752;11.348;2023-04-24T07:53:38;96703.97;;;9.56;100.00
70304;BME280;57712;48.752;11.348;2023-04-24T07:56:05;96708.63;;;9.43;100.00
70304;BME280;57712;48.752;11.348;2023-04-24T07:58:31;96701.63;;;9.42;100.00
70304;BME280;57712;48.752;11.348;2023-04-24T08:00:58;96706.16;;;9.48;100.00
70304;BME280;57712;48.752;11.348;2023-04-24T08:03:24;96701.53;;;9.45;100.00
70304;BME280;57712;48.752;11.348;2023-04-24T08:05:51;96696.66;;;9.53;100.00
70304;BME280;57712;48.752;11.348;2023-04-24T08:08:21;96699.06;;;9.51;100.00
70304;BME280;57712;48.752;11.348;2023-04-24T08:10:49;96701.25;;;9.85;100.00
70304;BME280;57712;48.752;11.348;2023-04-24T08:13:15;96697.00;;;9.97;100.00
70304;BME280;57712;48.752;11.348;2023-04-24T08:15:42;96690.34;;;9.98;100.00
70304;BME280;57712;48.752;11.348;2023-04-24T08:18:09;96687.84;;;10.03;100.00
70304;BME280;57712;48.752;11.348;2023-04-24T08:20:38;96696.50;;;10.15;100.00
70304;BME280;57712;48.752;11.348;2023-04-24T08:23:05;96705.63;;;10.24;100.00
70304;BME280;57712;48.752;11.348;2023-04-24T08:25:32;96709.59;;;10.49;100.00
70304;BME280;57712;48.752;11.348;2023-04-24T08:27:58;96709.16;;;10.37;100.00
70304;BME280;57712;48.752;11.348;2023-04-24T08:30:25;96702.03;;;10.27;100.00
70304;BME280;57712;48.752;11.348;2023-04-24T08:32:51;96703.03;;;10.84;100.00
70304;BME280;57712;48.752;11.348;2023-04-24T08:35:18;96702.69;;;10.82;100.00
70304;BME280;57712;48.752;11.348;2023-04-24T08:37:45;96707.41;;;10.94;100.00
70304;BME280;57712;48.752;11.348;2023-04-24T08:40:14;96703.03;;;10.84;100.00
70304;BME280;57712;48.752;11.348;2023-04-24T08:42:42;96706.00;;;10.77;100.00
70304;BME280;57712;48.752;11.348;2023-04-24T08:45:11;96710.78;;;10.73;100.00
70304;BME280;57712;48.752;11.348;2023-04-24T08:47:40;96705.84;;;11.06;100.00
70304;BME280;57712;48.752;11.348;2023-04-24T08:50:08;96712.25;;;11.94;100.00
70304;BME280;57712;48.752;11.348;2023-04-24T08:52:35;96715.44;;;12.14;100.00
70304;BME280;57712;48.752;11.348;2023-04-24T08:55:03;96707.22;;;12.14;100.00
70304;BME280;57712;48.752;11.348;2023-04-24T08:57:30;96698.78;;;12.40;100.00
70304;BME280;57712;48.752;11.348;2023-04-24T08:59:58;96706.97;;;12.00;100.00
70304;BME280;57712;48.752;11.348;2023-04-24T09:02:25;96712.31;;;11.81;100.00
70304;BME280;57712;48.752;11.348;2023-04-24T09:04:52;96700.34;;;11.88;100.00
70304;BME280;57712;48.752;11.348;2023-04-24T09:07:22;96713.22;;;12.22;100.00
70304;BME280;57712;48.752;11.348;2023-04-24T09:09:51;96706.59;;;12.73;100.00
70304;BME280;57712;48.752;11.348;2023-04-24T09:12:18;96706.75;;;13.27;100.00
70304;BME280;57712;48.752;11.348;2023-04-24T09:14:45;96715.41;;;13.08;100.00
70304;BME280;57712;48.752;11.348;2023-04-24T09:17:12;96722.47;;;12.78;100.00
70304;BME280;57712;48.752;11.348;2023-04-24T09:19:40;96715.50;;;12.24;100.00
70304;BME280;57712;48.752;11.348;2023-04-24T09:22:08;96722.84;;;12.27;100.00
70304;BME280;57712;48.752;11.348;2023-04-24T09:24:35;96716.81;;;12.72;100.00
70304;BME280;57712;48.752;11.348;2023-04-24T09:27:03;96721.81;;;12.64;100.00
70304;BME280;57712;48.752;11.348;2023-04-24T09:29:30;96708.81;;;12.56;100.00
70304;BME280;57712;48.752;11.348;2023-04-24T09:31:58;96715.66;;;12.51;100.00
70304;BME280;57712;48.752;11.348;2023-04-24T09:34:27;96718.66;;;12.13;100.00
70304;BME280;57712;48.752;11.348;2023-04-24T09:36:54;96730.09;;;12.74;100.00
70304;BME280;57712;48.752;11.348;2023-04-24T09:39:21;96725.81;;;12.10;100.00
70304;BME280;57712;48.752;11.348;2023-04-24T09:41:54;96735.03;;;12.26;100.00
70304;BME280;57712;48.752;11.348;2023-04-24T09:44:26;96731.00;;;12.18;100.00
70304;BME280;57712;48.752;11.348;2023-04-24T09:47:00;96728.25;;;12.70;100.00
70304;BME280;57712;48.752;11.348;2023-04-24T09:49:31;96716.53;;;12.79;100.00
70304;BME280;57712;48.752;11.348;2023-04-24T09:52:10;96722.75;;;12.70;100.00
70304;BME280;57712;48.752;11.348;2023-04-24T09:54:38;96723.44;;;13.24;100.00
70304;BME280;57712;48.752;11.348;2023-04-24T09:57:07;96719.00;;;13.54;100.00
70304;BME280;57712;48.752;11.348;2023-04-24T09:59:34;96706.31;;;13.93;100.00
70304;BME280;57712;48.752;11.348;2023-04-24T10:02:02;96709.81;;;14.21;100.00
70304;BME280;57712;48.752;11.348;2023-04-24T10:04:29;96700.94;;;14.17;100.00
70304;BME280;57712;48.752;11.348;2023-04-24T10:06:57;96702.69;;;14.57;100.00
70304;BME280;57712;48.752;11.348;2023-04-24T10:09:25;96723.91;;;13.41;100.00
70304;BME280;57712;48.752;11.348;2023-04-24T10:11:53;96706.78;;;13.46;100.00
70304;BME280;57712;48.752;11.348;2023-04-24T10:14:23;96707.09;;;13.39;100.00
70304;BME280;57712;48.752;11.348;2023-04-24T10:16:53;96702.63;;;12.74;100.00
70304;BME280;57712;48.752;11.348;2023-04-24T10:19:20;96709.31;;;12.63;100.00
70304;BME280;57712;48.752;11.348;2023-04-24T10:21:47;96724.25;;;12.62;100.00
70304;BME280;57712;48.752;11.348;2023-04-24T10:24:15;96754.34;;;11.78;100.00
70304;BME280;57712;48.752;11.348;2023-04-24T10:26:43;96769.41;;;11.26;100.00
70304;BME280;57712;48.752;11.348;2023-04-24T10:29:12;96772.72;;;10.70;100.00
70304;BME280;57712;48.752;11.348;2023-04-24T10:31:39;96778.06;;;10.49;100.00
70304;BME280;57712;48.752;11.348;2023-04-24T10:34:07;96784.94;;;10.40;100.00
70304;BME280;57712;48.752;11.348;2023-04-24T10:36:34;96762.19;;;10.44;100.00
70304;BME280;57712;48.752;11.348;2023-04-24T10:39:02;96748.38;;;11.11;100.00
70304;BME280;57712;48.752;11.348;2023-04-24T10:41:30;96741.88;;;11.30;100.00
70304;BME280;57712;48.752;11.348;2023-04-24T10:44:09;96745.25;;;11.81;100.00
70304;BME280;57712;48.752;11.348;2023-04-24T10:46:37;96753.47;;;12.78;100.00
70304;BME280;57712;48.752;11.348;2023-04-24T10:49:05;96750.16;;;13.33;100.00
70304;BME280;57712;48.752;11.348;2023-04-24T10:51:48;96750.53;;;13.71;100.00
70304;BME280;57712;48.752;11.348;2023-04-24T10:54:45;96747.72;;;14.35;100.00
70304;BME280;57712;48.752;11.348;2023-04-24T10:59:45;96744.66;;;14.61;100.00
70304;BME280;57712;48.752;11.348;2023-04-24T11:02:16;96745.50;;;13.88;100.00
70304;BME280;57712;48.752;11.348;2023-04-24T11:04:46;96747.31;;;14.28;100.00
70304;BME280;57712;48.752;11.348;2023-04-24T11:07:13;96752.22;;;14.84;100.00
70304;BME280;57712;48.752;11.348;2023-04-24T11:09:42;96753.44;;;13.95;100.00
70304;BME280;57712;48.752;11.348;2023-04-24T11:12:10;96743.50;;;13.70;100.00
70304;BME280;57712;48.752;11.348;2023-04-24T11:20:03;96733.88;;;13.56;100.00
70304;BME280;57712;48.752;11.348;2023-04-24T11:22:53;96736.13;;;13.49;100.00
70304;BME280;57712;48.752;11.348;2023-04-24T11:25:24;96729.06;;;14.49;100.00
70304;BME280;57712;48.752;11.348;2023-04-24T11:28:03;96725.88;;;14.83;100.00
70304;BME280;57712;48.752;11.348;2023-04-24T11:30:32;96728.44;;;15.20;100.00
70304;BME280;57712;48.752;11.348;2023-04-24T11:33:04;96722.31;;;15.73;100.00
70304;BME280;57712;48.752;11.348;2023-04-24T11:35:36;96728.50;;;16.51;100.00
70304;BME280;57712;48.752;11.348;2023-04-24T11:38:06;96728.69;;;15.31;100.00
70304;BME280;57712;48.752;11.348;2023-04-24T11:40:49;96732.31;;;13.74;81.07
70304;BME280;57712;48.752;11.348;2023-04-24T11:43:16;96728.69;;;14.65;82.10
70304;BME280;57712;48.752;11.348;2023-04-24T11:45:48;96727.22;;;14.46;78.27
70304;BME280;57712;48.752;11.348;2023-04-24T11:48:19;96728.00;;;14.88;76.81
70304;BME280;57712;48.752;11.348;2023-04-24T11:50:49;96720.00;;;16.25;78.20
70304;BME280;57712;48.752;11.348;2023-04-24T11:53:19;96724.41;;;16.46;81.14
70304;BME280;57712;48.752;11.348;2023-04-24T11:55:46;96720.00;;;14.57;71.31
70304;BME280;57712;48.752;11.348;2023-04-24T11:58:13;96727.66;;;14.95;75.20
70304;BME280;57712;48.752;11.348;2023-04-24T12:00:39;96723.94;;;15.55;74.92
70304;BME280;57712;48.752;11.348;2023-04-24T12:03:08;96720.59;;;15.27;83.00
70304;BME280;57712;48.752;11.348;2023-04-24T12:05:35;96725.66;;;16.15;89.58
70304;BME280;57712;48.752;11.348;2023-04-24T12:08:02;96743.84;;;15.12;94.72
70304;BME280;57712;48.752;11.348;2023-04-24T12:10:31;96744.97;;;14.54;99.63
70304;BME280;57712;48.752;11.348;2023-04-24T12:12:59;96744.09;;;15.23;98.80
70304;BME280;57712;48.752;11.348;2023-04-24T12:15:27;96747.75;;;15.20;98.80
70304;BME280;57712;48.752;11.348;2023-04-24T12:17:56;96757.81;;;14.57;92.86
70304;BME280;57712;48.752;11.348;2023-04-24T12:20:28;96755.19;;;14.71;92.67
70304;BME280;57712;48.752;11.348;2023-04-24T12:23:00;96762.75;;;15.28;94.47
70304;BME280;57712;48.752;11.348;2023-04-24T12:25:28;96761.13;;;15.93;83.89
70304;BME280;57712;48.752;11.348;2023-04-24T12:28:10;96754.47;;;15.28;90.75
70304;BME280;57712;48.752;11.348;2023-04-24T12:30:42;96763.00;;;14.64;94.32
70304;BME280;57712;48.752;11.348;2023-04-24T12:33:11;96767.50;;;13.79;94.87
70304;BME280;57712;48.752;11.348;2023-04-24T12:35:40;96772.84;;;13.55;98.48
70304;BME280;57712;48.752;11.348;2023-04-24T12:38:11;96770.19;;;13.42;97.99
70304;BME280;57712;48.752;11.348;2023-04-24T12:40:40;96772.50;;;13.35;95.84
70304;BME280;57712;48.752;11.348;2023-04-24T12:43:18;96772.41;;;14.02;95.44
70304;BME280;57712;48.752;11.348;2023-04-24T12:45:48;96775.63;;;13.82;87.65
70304;BME280;57712;48.752;11.348;2023-04-24T12:48:14;96759.03;;;14.65;86.74
70304;BME280;57712;48.752;11.348;2023-04-24T12:50:42;96757.25;;;14.16;76.20